Time;durP1;ratioP1;P1;durP2;ratioP2;P2;SDS_P1;SDS_P2;PMS_P1;PMS_P2;Temp;Humidity;BMP_temperature;BMP_pressure;BME280_temperature;BME280_humidity;BME280_pressure;Samples;Min_cycle;Max_cycle;Signal;HPM_P1;HPM_P2
2021/11/06 00:02:08;;;;;;;30.93;14.37;;;8.20;99.90;;;;;;5055343;28;20262;-86
2021/11/06 00:04:34;;;;;;;26.93;13.83;;;8.10;99.90;;;;;;5090570;28;20256;-86
2021/11/06 00:07:00;;;;;;;29.90;14.10;;;8.20;99.90;;;;;;5059489;28;20236;-86
2021/11/06 00:09:25;;;;;;;25.03;14.13;;;8.20;99.90;;;;;;5075414;28;20217;-86
2021/11/06 00:11:51;;;;;;;28.67;15.17;;;8.20;99.90;;;;;;5076398;28;20187;-87
2021/11/06 00:14:17;;;;;;;27.93;15.23;;;8.30;99.90;;;;;;5058877;28;20583;-87
2021/11/06 00:16:42;;;;;;;27.77;15.60;;;8.30;99.90;;;;;;5076623;28;20189;-87
2021/11/06 00:19:08;;;;;;;28.70;15.40;;;8.20;99.90;;;;;;5076087;28;20179;-87
2021/11/06 00:21:34;;;;;;;31.30;16.27;;;8.10;99.90;;;;;;5059488;28;20269;-87
2021/11/06 00:24:00;;;;;;;32.03;15.90;;;8.10;99.90;;;;;;5078748;28;20183;-88
2021/11/06 00:26:25;;;;;;;41.63;16.60;;;8.10;99.90;;;;;;5078558;28;20273;-87
2021/11/06 00:28:51;;;;;;;26.37;15.23;;;8.10;99.90;;;;;;5074253;28;20237;-87
2021/11/06 00:31:17;;;;;;;30.20;16.30;;;8.00;99.90;;;;;;5058010;28;20238;-87
2021/11/06 00:33:43;;;;;;;26.47;14.97;;;8.00;99.90;;;;;;5061553;28;20174;-88
2021/11/06 00:36:08;;;;;;;26.00;14.63;;;8.00;99.90;;;;;;5058462;28;20518;-87
2021/11/06 00:38:34;;;;;;;25.57;14.63;;;7.90;99.90;;;;;;5047514;28;20315;-87
2021/11/06 00:41:00;;;;;;;30.20;15.47;;;8.00;99.90;;;;;;5051647;28;20643;-88
2021/11/06 00:43:26;;;;;;;25.83;14.50;;;8.00;99.90;;;;;;5056080;28;20195;-88
2021/11/06 00:45:51;;;;;;;25.53;14.60;;;8.00;99.90;;;;;;5052505;28;20183;-87
2021/11/06 00:48:17;;;;;;;28.47;14.23;;;8.00;99.90;;;;;;5070082;28;20176;-86
2021/11/06 00:50:43;;;;;;;24.50;12.77;;;8.00;99.90;;;;;;5034020;28;20551;-87
2021/11/06 00:53:09;;;;;;;24.97;12.53;;;7.90;99.90;;;;;;5051437;28;20183;-87
2021/11/06 00:55:34;;;;;;;24.97;12.97;;;7.90;99.90;;;;;;5052569;28;20175;-87
2021/11/06 00:58:00;;;;;;;23.00;12.57;;;7.90;99.90;;;;;;5019990;28;20720;-87
2021/11/06 01:00:26;;;;;;;22.33;12.97;;;7.80;99.90;;;;;;5051689;28;20555;-86
2021/11/06 01:02:52;;;;;;;22.63;12.20;;;7.80;99.90;;;;;;5051314;28;20192;-87
2021/11/06 01:05:21;;;;;;;20.83;13.10;;;7.80;99.90;;;;;;5053289;28;20180;-87
2021/11/06 01:07:47;;;;;;;22.27;12.33;;;7.90;99.90;;;;;;5068026;28;20201;-88
2021/11/06 01:10:14;;;;;;;22.47;12.00;;;7.90;99.90;;;;;;5034487;28;20212;-87
2021/11/06 01:12:40;;;;;;;23.40;10.90;;;7.80;99.90;;;;;;5052031;28;20180;-87
2021/11/06 01:15:08;;;;;;;18.63;10.57;;;7.80;99.90;;;;;;5068128;28;20238;-87
2021/11/06 01:17:34;;;;;;;20.40;10.73;;;7.70;99.90;;;;;;5052483;28;20175;-87
2021/11/06 01:20:00;;;;;;;19.40;10.43;;;7.70;99.90;;;;;;5040857;28;20169;-87
2021/11/06 01:22:26;;;;;;;19.60;9.93;;;7.80;99.90;;;;;;5047746;28;20703;-86
2021/11/06 01:24:51;;;;;;;20.87;10.10;;;7.80;99.90;;;;;;5051121;28;20665;-86
2021/11/06 01:27:17;;;;;;;21.30;10.70;;;7.80;99.90;;;;;;5052037;28;20186;-86
2021/11/06 01:29:43;;;;;;;18.50;10.50;;;7.80;99.90;;;;;;5049486;28;20683;-86
2021/11/06 01:32:09;;;;;;;24.50;10.00;;;7.70;99.90;;;;;;5036739;28;20175;-85
2021/11/06 01:34:36;;;;;;;17.47;9.80;;;7.70;99.90;;;;;;5067614;28;20255;-86
2021/11/06 01:37:02;;;;;;;19.27;9.27;;;7.70;99.90;;;;;;5036378;28;20177;-86
2021/11/06 01:39:28;;;;;;;19.23;10.57;;;7.70;99.90;;;;;;5036453;28;20232;-86
2021/11/06 01:41:54;;;;;;;22.63;9.97;;;7.80;99.90;;;;;;5034506;28;20192;-86
2021/11/06 01:44:20;;;;;;;22.33;10.53;;;7.70;99.90;;;;;;5031901;28;20547;-86
2021/11/06 01:46:46;;;;;;;17.87;9.77;;;7.70;99.90;;;;;;5037560;28;20182;-87
2021/11/06 01:49:12;;;;;;;19.53;9.93;;;7.70;99.90;;;;;;5030021;28;20192;-86
2021/11/06 01:51:38;;;;;;;18.73;9.50;;;7.70;99.90;;;;;;5040509;28;20168;-86
2021/11/06 01:54:04;;;;;;;17.40;9.37;;;7.60;99.90;;;;;;5053946;28;20222;-85
2021/11/06 01:56:30;;;;;;;19.00;8.97;;;7.50;99.90;;;;;;5047977;28;20188;-88
2021/11/06 01:58:56;;;;;;;20.47;9.47;;;7.60;99.90;;;;;;5037554;28;20626;-88
2021/11/06 02:01:22;;;;;;;20.37;9.50;;;7.60;99.90;;;;;;5034782;28;20184;-87
2021/11/06 02:03:48;;;;;;;19.83;10.17;;;7.60;99.90;;;;;;5055368;28;20259;-87
2021/11/06 02:06:15;;;;;;;21.57;10.10;;;7.60;99.90;;;;;;5029147;28;20199;-87
2021/11/06 02:08:41;;;;;;;18.47;10.07;;;7.60;99.90;;;;;;5039118;28;20213;-87
2021/11/06 02:11:10;;;;;;;18.17;9.97;;;7.50;99.90;;;;;;5071002;28;20192;-87
2021/11/06 02:13:36;;;;;;;19.00;9.30;;;7.50;99.90;;;;;;5047954;28;20192;-86
2021/11/06 02:16:02;;;;;;;19.23;9.70;;;7.50;99.90;;;;;;5054185;28;20173;-87
2021/11/06 02:18:30;;;;;;;20.40;10.40;;;7.50;99.90;;;;;;5043945;28;20181;-87
2021/11/06 02:21:03;;;;;;;18.83;9.93;;;7.50;99.90;;;;;;5038357;28;20185;-87
2021/11/06 02:23:34;;;;;;;19.73;9.53;;;7.40;99.90;;;;;;5048548;28;20182;-87
2021/11/06 02:25:59;;;;;;;18.20;9.10;;;7.50;99.90;;;;;;5053504;28;20187;-86
2021/11/06 02:28:25;;;;;;;19.67;9.07;;;7.50;99.90;;;;;;5048216;28;20188;-87
2021/11/06 02:30:51;;;;;;;18.33;9.75;;;7.50;99.90;;;;;;5035294;28;20388;-87
2021/11/06 02:33:17;;;;;;;16.37;8.70;;;7.50;99.90;;;;;;5021936;28;20176;-87
2021/11/06 02:35:42;;;;;;;19.20;9.23;;;7.50;99.90;;;;;;5038801;28;20188;-87
2021/11/06 02:38:11;;;;;;;18.93;8.87;;;7.40;99.90;;;;;;5050207;28;20244;-86
2021/11/06 02:40:37;;;;;;;18.00;9.23;;;7.50;99.90;;;;;;5048981;28;20200;-88
2021/11/06 02:43:03;;;;;;;14.17;8.23;;;7.50;99.90;;;;;;5034761;28;20189;-87
2021/11/06 02:45:29;;;;;;;16.23;8.83;;;7.40;99.90;;;;;;5031412;28;20184;-87
2021/11/06 02:47:55;;;;;;;16.23;8.53;;;7.40;99.90;;;;;;5049453;28;20234;-88
2021/11/06 02:50:21;;;;;;;17.60;8.50;;;7.40;99.90;;;;;;5046762;28;20228;-86
2021/11/06 02:52:47;;;;;;;14.00;8.00;;;7.40;99.90;;;;;;5052023;28;20195;-87
2021/11/06 02:55:13;;;;;;;15.47;8.47;;;7.30;99.90;;;;;;5028944;28;20580;-87
2021/11/06 02:57:39;;;;;;;17.97;8.87;;;7.30;99.90;;;;;;5053780;28;20180;-86
2021/11/06 03:00:07;;;;;;;16.20;8.47;;;7.30;99.90;;;;;;5049987;28;20192;-87
2021/11/06 03:02:33;;;;;;;17.40;8.63;;;7.30;99.90;;;;;;5030680;28;20584;-86
2021/11/06 03:05:07;;;;;;;18.70;8.90;;;7.30;99.90;;;;;;5036700;28;20184;-87
2021/11/06 03:07:33;;;;;;;15.80;8.67;;;7.30;99.90;;;;;;5030005;28;20721;-86
2021/11/06 03:09:59;;;;;;;19.30;10.27;;;7.30;99.90;;;;;;5047501;28;20300;-86
2021/11/06 03:12:25;;;;;;;18.17;9.47;;;7.40;99.90;;;;;;5046916;28;20184;-87
2021/11/06 03:14:51;;;;;;;17.40;9.50;;;7.40;99.90;;;;;;5052353;28;20593;-86
2021/11/06 03:17:17;;;;;;;20.13;9.53;;;7.30;99.90;;;;;;5028096;28;20199;-87
2021/11/06 03:19:43;;;;;;;17.83;9.70;;;7.20;99.90;;;;;;5052452;28;20548;-87
2021/11/06 03:22:10;;;;;;;19.23;9.40;;;7.20;99.90;;;;;;5034077;28;20194;-86
2021/11/06 03:24:36;;;;;;;16.00;9.33;;;7.20;99.90;;;;;;5053227;28;20550;-86
2021/11/06 03:27:02;;;;;;;23.97;9.43;;;7.20;99.90;;;;;;5052122;28;20245;-87
2021/11/06 03:29:28;;;;;;;15.10;9.13;;;7.20;99.90;;;;;;5043647;28;20188;-87
2021/11/06 03:31:54;;;;;;;16.33;8.80;;;7.10;99.90;;;;;;5053448;28;20184;-87
2021/11/06 03:34:20;;;;;;;17.70;8.73;;;7.10;99.90;;;;;;5031942;28;20180;-87
2021/11/06 03:36:46;;;;;;;16.03;8.47;;;7.10;99.90;;;;;;5051734;28;20681;-87
2021/11/06 03:39:11;;;;;;;17.87;8.70;;;7.20;99.90;;;;;;5043842;28;20230;-87
2021/11/06 03:41:37;;;;;;;16.73;8.00;;;7.20;99.90;;;;;;5058468;28;20177;-87
2021/11/06 03:44:03;;;;;;;14.97;8.03;;;7.30;99.90;;;;;;5075348;28;20180;-87
2021/11/06 03:46:29;;;;;;;14.73;8.13;;;7.20;99.90;;;;;;5058724;28;20539;-86
2021/11/06 03:48:56;;;;;;;14.97;8.10;;;7.20;99.90;;;;;;5077316;28;20206;-88
2021/11/06 03:51:21;;;;;;;13.97;8.00;;;7.10;99.90;;;;;;5059346;28;20190;-86
2021/11/06 03:53:47;;;;;;;16.33;7.73;;;7.10;99.90;;;;;;5077781;28;20193;-85
2021/11/06 03:56:13;;;;;;;14.97;8.47;;;7.00;99.90;;;;;;5074936;28;20182;-86
2021/11/06 03:58:39;;;;;;;16.40;7.87;;;7.10;99.90;;;;;;5058348;28;20205;-86
2021/11/06 04:01:04;;;;;;;13.13;7.33;;;7.10;99.90;;;;;;5092291;28;20204;-84
2021/11/06 04:03:30;;;;;;;16.00;8.23;;;7.10;99.90;;;;;;5059642;28;20186;-85
2021/11/06 04:05:56;;;;;;;16.13;7.57;;;7.10;99.90;;;;;;5058944;28;20182;-85
2021/11/06 04:08:22;;;;;;;16.37;7.63;;;7.00;99.90;;;;;;5075314;28;20274;-85
2021/11/06 04:10:47;;;;;;;14.20;7.23;;;7.00;99.90;;;;;;5074800;28;20634;-85
2021/11/06 04:13:16;;;;;;;16.43;7.73;;;7.10;99.90;;;;;;5084775;28;20269;-85
2021/11/06 04:15:42;;;;;;;16.10;7.63;;;7.10;99.90;;;;;;5061263;28;20267;-86
2021/11/06 04:18:08;;;;;;;17.00;7.30;;;7.10;99.90;;;;;;5075159;28;20185;-86
2021/11/06 04:20:34;;;;;;;14.00;7.87;;;7.00;99.90;;;;;;5061515;28;20182;-85
2021/11/06 04:23:00;;;;;;;13.37;7.00;;;7.00;99.90;;;;;;5075345;28;20186;-85
2021/11/06 04:25:26;;;;;;;13.07;6.63;;;7.00;99.90;;;;;;5058784;28;20218;-86
2021/11/06 04:27:52;;;;;;;14.50;7.40;;;7.10;99.90;;;;;;5058756;28;20186;-85
2021/11/06 04:30:18;;;;;;;13.47;7.47;;;7.00;99.90;;;;;;5074964;28;20581;-85
2021/11/06 04:32:44;;;;;;;13.00;7.10;;;7.00;99.90;;;;;;5075268;28;20506;-86
2021/11/06 04:35:11;;;;;;;13.67;7.40;;;7.10;99.90;;;;;;5073548;28;20239;-86
2021/11/06 04:37:37;;;;;;;13.27;7.10;;;7.00;99.90;;;;;;5073249;28;20179;-86
2021/11/06 04:40:05;;;;;;;15.17;7.03;;;7.10;99.90;;;;;;5073097;28;20674;-85
2021/11/06 04:42:31;;;;;;;16.37;7.17;;;7.10;99.90;;;;;;5073820;28;20670;-86
2021/11/06 04:44:56;;;;;;;18.37;7.57;;;7.10;99.90;;;;;;5073639;28;20202;-85
2021/11/06 04:47:22;;;;;;;14.00;6.87;;;7.10;99.90;;;;;;5061385;28;20185;-85
2021/11/06 04:49:48;;;;;;;16.23;7.70;;;7.10;99.90;;;;;;5073714;28;20213;-85
2021/11/06 04:52:14;;;;;;;16.23;7.17;;;7.00;99.90;;;;;;5076496;28;20178;-85
2021/11/06 04:54:40;;;;;;;13.87;6.90;;;6.90;99.90;;;;;;5057975;28;20531;-86
2021/11/06 04:57:06;;;;;;;13.17;6.67;;;6.90;99.90;;;;;;5058855;28;20191;-86
2021/11/06 04:59:32;;;;;;;18.60;7.20;;;6.90;99.90;;;;;;5074625;28;20300;-85
2021/11/06 05:01:57;;;;;;;15.27;7.37;;;7.00;99.90;;;;;;5059318;28;20220;-85
2021/11/06 05:04:23;;;;;;;16.07;7.90;;;7.00;99.90;;;;;;5074410;28;20189;-85
2021/11/06 05:06:49;;;;;;;16.53;7.03;;;7.10;99.90;;;;;;5074786;28;20175;-85
2021/11/06 05:09:15;;;;;;;13.97;7.67;;;7.00;99.90;;;;;;5092710;28;20210;-86
2021/11/06 05:11:41;;;;;;;14.43;6.63;;;7.00;99.90;;;;;;5074686;28;20184;-85
2021/11/06 05:14:07;;;;;;;14.00;6.90;;;7.10;99.90;;;;;;5072490;28;20188;-86
2021/11/06 05:16:33;;;;;;;15.40;7.10;;;7.00;99.90;;;;;;5073128;28;20239;-86
2021/11/06 05:18:59;;;;;;;13.20;7.03;;;7.00;99.90;;;;;;5077270;28;20728;-86
2021/11/06 05:21:25;;;;;;;16.20;6.97;;;7.00;99.90;;;;;;5078171;28;20261;-86
2021/11/06 05:23:51;;;;;;;16.80;7.70;;;7.10;99.90;;;;;;5079959;28;20180;-86
2021/11/06 05:26:17;;;;;;;15.27;7.20;;;7.10;99.90;;;;;;5080359;28;20197;-87
2021/11/06 05:28:43;;;;;;;14.00;6.83;;;7.20;99.90;;;;;;5076964;28;20197;-87
2021/11/06 05:31:11;;;;;;;13.33;6.83;;;7.30;99.90;;;;;;5077949;28;20178;-86
2021/11/06 05:33:38;;;;;;;10.77;6.20;;;7.30;99.90;;;;;;5078501;28;20269;-85
2021/11/06 05:36:04;;;;;;;12.20;6.67;;;7.40;99.90;;;;;;5078922;28;20174;-85
2021/11/06 05:38:29;;;;;;;11.80;6.20;;;7.40;99.90;;;;;;5097298;28;20228;-86
2021/11/06 05:40:55;;;;;;;15.03;6.30;;;7.40;99.90;;;;;;5079322;28;20206;-86
2021/11/06 05:43:21;;;;;;;13.27;6.80;;;7.40;99.90;;;;;;5079896;28;20207;-86
2021/11/06 05:45:47;;;;;;;11.33;5.80;;;7.40;99.90;;;;;;5080941;28;20184;-87
2021/11/06 05:48:13;;;;;;;14.20;6.10;;;7.40;99.90;;;;;;5058366;28;20195;-87
2021/11/06 05:50:38;;;;;;;13.30;6.10;;;7.30;99.90;;;;;;5078244;28;20213;-86
2021/11/06 05:53:04;;;;;;;11.60;5.70;;;7.30;99.90;;;;;;5076086;28;20566;-86
2021/11/06 05:55:30;;;;;;;12.93;6.57;;;7.40;99.90;;;;;;5061436;28;20177;-84
2021/11/06 05:57:55;;;;;;;13.47;6.40;;;7.40;99.90;;;;;;5095268;28;20729;-87
2021/11/06 06:00:21;;;;;;;14.73;5.90;;;7.40;99.90;;;;;;5064302;28;20545;-86
2021/11/06 06:02:48;;;;;;;14.37;6.30;;;7.40;99.90;;;;;;5062125;28;20210;-86
2021/11/06 06:05:14;;;;;;;12.47;6.47;;;7.40;99.90;;;;;;5062357;28;20189;-86
2021/11/06 06:07:42;;;;;;;14.93;6.37;;;7.40;99.90;;;;;;5078648;28;20191;-86
2021/11/06 06:10:12;;;;;;;12.00;6.10;;;7.40;99.90;;;;;;5079356;28;20214;-86
2021/11/06 06:12:39;;;;;;;11.87;6.27;;;7.30;99.90;;;;;;5061092;28;20183;-85
2021/11/06 06:15:06;;;;;;;13.60;6.47;;;7.20;99.90;;;;;;5060752;28;20191;-86
2021/11/06 06:17:32;;;;;;;10.43;6.27;;;7.20;99.90;;;;;;5074093;28;20179;-87
2021/11/06 06:19:59;;;;;;;13.00;6.00;;;7.30;99.90;;;;;;5059176;28;20198;-87
2021/11/06 06:22:24;;;;;;;13.07;5.93;;;7.20;99.90;;;;;;5077901;28;20208;-86
2021/11/06 06:24:51;;;;;;;13.37;6.77;;;7.20;99.90;;;;;;5076171;28;20182;-86
2021/11/06 06:27:17;;;;;;;11.83;6.37;;;7.30;99.90;;;;;;5076933;28;20652;-86
2021/11/06 06:29:43;;;;;;;13.20;5.90;;;7.40;99.90;;;;;;5076585;28;20199;-86
2021/11/06 06:32:09;;;;;;;13.97;7.40;;;7.50;99.90;;;;;;5079207;28;20175;-86
2021/11/06 06:34:34;;;;;;;11.73;6.17;;;7.60;99.90;;;;;;5074997;28;20630;-86
2021/11/06 06:37:00;;;;;;;16.63;6.50;;;7.70;99.90;;;;;;5077010;28;20277;-86
2021/11/06 06:39:26;;;;;;;11.27;6.80;;;7.70;99.90;;;;;;5079249;28;20238;-86
2021/11/06 06:41:52;;;;;;;11.80;7.00;;;7.80;99.90;;;;;;5077742;28;20244;-86
2021/11/06 06:44:18;;;;;;;13.17;6.83;;;7.90;99.90;;;;;;5077001;28;20179;-86
2021/11/06 06:46:44;;;;;;;14.47;6.90;;;8.00;99.90;;;;;;5079918;28;20187;-86
2021/11/06 06:49:09;;;;;;;13.53;6.50;;;8.00;99.90;;;;;;5078210;28;20274;-86
2021/11/06 06:51:35;;;;;;;14.07;7.07;;;8.20;99.90;;;;;;5075317;28;20206;-88
2021/11/06 06:54:01;;;;;;;15.53;6.93;;;8.20;99.90;;;;;;5075954;28;20187;-86
2021/11/06 06:56:26;;;;;;;15.40;6.97;;;8.30;99.90;;;;;;5058824;28;20191;-87
2021/11/06 06:58:52;;;;;;;11.13;6.33;;;8.30;99.90;;;;;;5059481;28;20190;-86
2021/11/06 07:01:18;;;;;;;12.83;6.43;;;8.40;99.90;;;;;;5090741;28;20195;-87
2021/11/06 07:03:44;;;;;;;13.33;6.60;;;8.30;99.90;;;;;;5061200;28;20190;-87
2021/11/06 07:06:09;;;;;;;12.33;6.20;;;8.40;99.90;;;;;;5074312;28;20190;-87
2021/11/06 07:08:35;;;;;;;11.90;6.60;;;8.40;99.90;;;;;;5073006;28;20196;-86
2021/11/06 07:11:01;;;;;;;10.43;5.90;;;8.50;99.90;;;;;;5076322;28;20209;-87
2021/11/06 07:13:27;;;;;;;14.90;6.73;;;8.50;99.90;;;;;;5059820;28;20198;-88
2021/11/06 07:15:53;;;;;;;14.30;6.57;;;8.50;99.90;;;;;;5077362;28;20186;-88
2021/11/06 07:18:19;;;;;;;13.20;6.90;;;8.50;99.90;;;;;;5075672;28;20171;-88
2021/11/06 07:20:45;;;;;;;13.73;6.80;;;8.50;99.90;;;;;;5059736;28;20194;-87
2021/11/06 07:23:11;;;;;;;15.20;6.80;;;8.50;99.90;;;;;;5060117;28;20226;-88
2021/11/06 07:25:37;;;;;;;15.07;6.90;;;8.50;99.90;;;;;;5077173;28;20209;-88
2021/11/06 07:28:03;;;;;;;13.40;6.87;;;8.50;99.90;;;;;;5075474;28;20171;-88
2021/11/06 07:30:29;;;;;;;12.97;6.57;;;8.50;99.90;;;;;;5058639;28;20205;-88
2021/11/06 07:32:55;;;;;;;12.10;6.50;;;8.50;99.90;;;;;;5072291;28;20187;-88
2021/11/06 07:35:21;;;;;;;14.17;7.00;;;8.40;99.90;;;;;;5074978;28;20265;-89
2021/11/06 07:37:47;;;;;;;15.13;7.07;;;8.50;99.90;;;;;;5089612;28;20196;-88
2021/11/06 07:40:13;;;;;;;14.23;6.73;;;8.60;99.90;;;;;;5076366;28;20195;-88
2021/11/06 07:42:45;;;;;;;11.83;6.40;;;8.60;99.90;;;;;;5056433;28;20191;-86
2021/11/06 07:45:13;;;;;;;10.73;6.03;;;8.60;99.90;;;;;;5072484;28;20233;-88
2021/11/06 07:47:39;;;;;;;11.77;6.50;;;8.50;99.90;;;;;;5073914;28;20179;-89
2021/11/06 07:50:06;;;;;;;12.27;6.33;;;8.50;99.90;;;;;;5074205;28;20212;-88
2021/11/06 07:52:33;;;;;;;13.77;6.70;;;8.60;99.90;;;;;;5074001;28;20973;-88
2021/11/06 07:54:59;;;;;;;12.73;7.10;;;8.70;99.90;;;;;;5076004;28;20207;-88
2021/11/06 07:57:25;;;;;;;13.13;6.80;;;8.80;99.90;;;;;;5076265;28;20203;-88
2021/11/06 07:59:50;;;;;;;14.50;6.87;;;8.90;99.90;;;;;;5075833;28;20206;-88
2021/11/06 08:02:16;;;;;;;11.33;6.90;;;8.90;99.90;;;;;;5078629;28;20210;-88
2021/11/06 08:04:42;;;;;;;16.10;7.33;;;8.80;99.90;;;;;;5059830;28;20225;-89
2021/11/06 08:07:08;;;;;;;12.77;6.83;;;8.90;99.90;;;;;;5055755;28;20178;-89
2021/11/06 08:09:34;;;;;;;13.63;6.90;;;9.00;99.90;;;;;;5074388;28;20345;-89
2021/11/06 08:12:00;;;;;;;14.97;6.90;;;9.10;99.90;;;;;;5059383;28;20184;-88
2021/11/06 08:14:25;;;;;;;16.33;7.00;;;9.20;99.90;;;;;;5058568;28;20186;-89
2021/11/06 08:16:56;;;;;;;13.77;6.67;;;9.40;99.90;;;;;;5057648;28;20182;-88
2021/11/06 08:19:23;;;;;;;14.23;7.00;;;9.40;99.90;;;;;;5058529;28;20263;-89
2021/11/06 08:21:50;;;;;;;14.57;7.10;;;9.40;99.90;;;;;;5074711;28;20186;-89
2021/11/06 08:24:19;;;;;;;12.70;7.10;;;9.50;99.90;;;;;;5068453;28;20182;-89
2021/11/06 08:26:46;;;;;;;12.90;7.03;;;9.60;99.90;;;;;;5074556;28;20730;-90
2021/11/06 08:29:12;;;;;;;15.70;7.30;;;9.70;99.90;;;;;;5090742;28;20289;-89
2021/11/06 08:31:37;;;;;;;15.47;7.50;;;9.90;99.90;;;;;;5057061;28;20214;-87
2021/11/06 08:34:03;;;;;;;16.03;7.63;;;10.00;99.90;;;;;;5058175;28;20178;-87
2021/11/06 08:36:29;;;;;;;16.87;7.90;;;10.10;99.90;;;;;;5073596;28;20199;-88
2021/11/06 08:38:55;;;;;;;14.97;7.50;;;10.20;99.90;;;;;;5074652;28;20216;-89
2021/11/06 08:41:21;;;;;;;15.93;7.77;;;10.20;99.90;;;;;;5059060;28;20649;-88
2021/11/06 08:43:47;;;;;;;15.53;7.73;;;10.30;99.90;;;;;;5073236;28;20877;-88
2021/11/06 08:46:13;;;;;;;16.10;8.20;;;10.30;99.90;;;;;;5090924;28;20183;-89
2021/11/06 08:48:38;;;;;;;16.63;8.40;;;10.40;99.90;;;;;;5072784;28;20175;-89
2021/11/06 08:51:04;;;;;;;19.07;8.77;;;10.40;99.90;;;;;;5057319;28;20224;-88
2021/11/06 08:53:30;;;;;;;18.23;9.27;;;10.50;99.90;;;;;;5075776;28;20203;-87
2021/11/06 08:55:56;;;;;;;20.33;9.77;;;10.60;99.90;;;;;;5079587;28;20187;-88
2021/11/06 08:58:22;;;;;;;24.60;11.53;;;10.80;99.90;;;;;;5078344;28;20215;-88
2021/11/06 09:00:49;;;;;;;20.47;10.93;;;11.00;99.90;;;;;;5062618;28;20184;-88
2021/11/06 09:03:19;;;;;;;21.73;10.63;;;11.10;99.90;;;;;;5065035;28;21268;-88
2021/11/06 09:05:50;;;;;;;27.90;11.70;;;11.30;99.90;;;;;;5059275;28;20252;-88
2021/11/06 09:08:17;;;;;;;24.87;12.00;;;11.30;99.90;;;;;;5063883;28;20280;-88
2021/11/06 09:10:43;;;;;;;30.47;13.43;;;11.60;99.90;;;;;;5064866;28;20211;-88
2021/11/06 09:13:09;;;;;;;25.27;11.47;;;11.90;99.90;;;;;;5062629;28;20175;-88
2021/11/06 09:15:35;;;;;;;21.33;10.73;;;12.30;99.90;;;;;;5079288;28;20194;-88
2021/11/06 09:18:01;;;;;;;22.23;11.70;;;12.60;99.90;;;;;;5077101;28;20210;-88
2021/11/06 09:20:27;;;;;;;22.67;10.57;;;12.70;99.90;;;;;;5080740;28;20269;-88
2021/11/06 09:22:54;;;;;;;18.07;9.60;;;12.80;99.90;;;;;;5076443;28;20182;-89
2021/11/06 09:25:21;;;;;;;17.80;9.50;;;12.90;99.90;;;;;;5063688;28;20571;-89
2021/11/06 09:27:47;;;;;;;17.20;9.13;;;13.00;99.90;;;;;;5079868;28;20177;-89
2021/11/06 09:30:13;;;;;;;19.13;9.03;;;13.10;99.90;;;;;;5080571;28;20798;-88
2021/11/06 09:32:40;;;;;;;17.57;8.73;;;13.10;99.90;;;;;;5075899;28;20182;-89
2021/11/06 09:35:07;;;;;;;19.23;9.17;;;12.90;99.90;;;;;;5064167;28;20186;-88
2021/11/06 09:37:33;;;;;;;16.63;8.63;;;12.80;99.90;;;;;;5063436;28;20215;-88
2021/11/06 09:39:59;;;;;;;16.03;8.27;;;12.60;99.90;;;;;;5080032;28;20297;-90
2021/11/06 09:42:25;;;;;;;16.30;8.27;;;12.50;99.90;;;;;;5063442;28;20200;-88
2021/11/06 09:44:51;;;;;;;16.00;7.60;;;12.30;99.90;;;;;;5078349;28;20177;-88
2021/11/06 09:47:19;;;;;;;13.53;7.50;;;12.10;99.90;;;;;;5062846;28;20185;-88
2021/11/06 09:49:47;;;;;;;14.80;7.47;;;12.00;99.90;;;;;;5077085;28;20440;-88
2021/11/06 09:52:13;;;;;;;14.53;8.13;;;11.90;99.90;;;;;;5063452;28;20563;-88
2021/11/06 09:54:40;;;;;;;20.30;9.00;;;11.90;99.90;;;;;;5078167;28;20197;-88
2021/11/06 09:57:07;;;;;;;22.07;10.00;;;12.00;99.90;;;;;;5081010;28;20186;-88
2021/11/06 09:59:33;;;;;;;23.20;9.57;;;12.10;99.90;;;;;;5079562;28;20186;-88
2021/11/06 10:02:00;;;;;;;19.43;9.80;;;12.10;99.90;;;;;;5079167;28;20250;-88
2021/11/06 10:04:26;;;;;;;18.47;10.07;;;12.10;99.90;;;;;;5077923;28;20670;-89
2021/11/06 10:06:52;;;;;;;16.73;9.00;;;12.20;99.90;;;;;;5059080;28;20181;-90
2021/11/06 10:09:19;;;;;;;15.90;7.70;;;12.30;99.90;;;;;;5071683;28;20614;-88
2021/11/06 10:11:47;;;;;;;17.37;9.03;;;12.30;99.90;;;;;;5076539;28;20177;-88
2021/11/06 10:14:19;;;;;;;15.93;8.20;;;12.20;99.90;;;;;;5076904;28;20190;-89
2021/11/06 10:16:52;;;;;;;15.30;7.70;;;12.30;99.90;;;;;;5074491;28;20538;-89
2021/11/06 10:19:26;;;;;;;12.37;7.20;;;12.30;99.90;;;;;;5061424;28;20181;-88
2021/11/06 10:22:09;;;;;;;17.33;7.83;;;12.40;99.90;;;;;;5077168;28;20195;-89
2021/11/06 10:24:52;;;;;;;11.47;6.23;;;12.50;99.90;;;;;;5077989;28;20633;-89
2021/11/06 10:27:30;;;;;;;12.13;6.87;;;12.30;99.90;;;;;;5076948;28;20221;-89
2021/11/06 10:30:05;;;;;;;13.60;6.33;;;12.30;99.90;;;;;;5076488;28;20252;-89
2021/11/06 10:32:32;;;;;;;14.57;6.80;;;12.10;99.90;;;;;;5070057;28;20268;-88
2021/11/06 10:35:13;;;;;;;12.93;6.47;;;12.10;99.90;;;;;;5076247;28;20193;-88
2021/11/06 10:37:39;;;;;;;13.97;6.20;;;12.10;99.90;;;;;;5077100;28;20578;-89
2021/11/06 10:40:09;;;;;;;13.00;6.77;;;12.00;99.90;;;;;;5072960;28;20193;-89
2021/11/06 10:42:47;;;;;;;15.77;7.03;;;11.90;99.90;;;;;;5091906;28;20699;-89
2021/11/06 10:45:15;;;;;;;13.63;6.80;;;11.90;99.90;;;;;;5075824;28;20698;-89
2021/11/06 10:48:01;;;;;;;12.30;6.60;;;12.00;99.90;;;;;;5062431;28;20189;-89
2021/11/06 10:50:44;;;;;;;12.67;6.47;;;11.90;99.90;;;;;;5073471;28;20219;-88
2021/11/06 10:53:12;;;;;;;15.67;6.43;;;11.80;99.90;;;;;;5073024;28;20210;-89
2021/11/06 10:55:40;;;;;;;12.43;6.70;;;11.70;99.90;;;;;;5075228;28;20197;-89
2021/11/06 10:58:28;;;;;;;15.47;6.67;;;11.70;99.90;;;;;;5057226;28;20197;-89
2021/11/06 11:00:59;;;;;;;16.20;7.17;;;11.70;99.90;;;;;;5068763;28;20189;-88
2021/11/06 11:03:29;;;;;;;14.57;6.57;;;11.60;99.90;;;;;;5075560;28;20276;-89
2021/11/06 11:05:57;;;;;;;13.83;6.70;;;11.60;99.90;;;;;;5077341;28;20282;-90
2021/11/06 11:08:23;;;;;;;12.00;6.30;;;11.60;99.90;;;;;;5075349;28;20206;-89
2021/11/06 11:10:49;;;;;;;12.97;6.53;;;11.50;99.90;;;;;;5057705;28;20295;-88
2021/11/06 11:13:23;;;;;;;14.67;7.00;;;11.50;99.90;;;;;;5059941;28;20186;-89
2021/11/06 11:15:52;;;;;;;14.57;6.80;;;11.50;99.90;;;;;;5088430;28;20181;-89
2021/11/06 11:18:35;;;;;;;12.57;6.70;;;11.60;99.90;;;;;;5059691;28;20259;-88
2021/11/06 11:21:09;;;;;;;13.33;7.07;;;11.70;99.90;;;;;;5073868;28;20196;-88
2021/11/06 11:23:35;;;;;;;14.27;6.90;;;11.70;99.90;;;;;;5091186;28;20180;-89
2021/11/06 11:26:01;;;;;;;15.13;7.13;;;11.80;99.90;;;;;;5075997;28;20262;-88
2021/11/06 11:28:27;;;;;;;12.77;6.47;;;12.00;99.90;;;;;;5077137;28;20272;-89
2021/11/06 11:30:54;;;;;;;10.30;5.73;;;12.00;99.90;;;;;;5062561;28;20210;-88
2021/11/06 11:33:20;;;;;;;12.77;6.20;;;12.00;99.90;;;;;;5077484;28;20208;-87
2021/11/06 11:35:47;;;;;;;12.23;6.07;;;12.10;99.90;;;;;;5075113;28;20216;-88
2021/11/06 11:38:13;;;;;;;11.97;5.77;;;12.10;99.90;;;;;;5075355;28;20223;-89
2021/11/06 11:40:58;;;;;;;16.40;6.27;;;12.10;99.90;;;;;;5071950;28;20236;-89
2021/11/06 11:43:38;;;;;;;11.33;5.97;;;12.30;99.90;;;;;;5056764;28;20189;-88
2021/11/06 11:46:10;;;;;;;16.00;8.70;;;12.40;99.90;;;;;;5058733;28;20675;-88
2021/11/06 11:48:37;;;;;;;18.37;8.10;;;12.40;99.90;;;;;;5073120;28;20272;-88
2021/11/06 11:51:04;;;;;;;12.90;6.87;;;12.40;99.90;;;;;;5057968;28;20274;-88
2021/11/06 11:53:33;;;;;;;11.87;5.80;;;12.40;99.90;;;;;;5075940;28;20206;-87
2021/11/06 11:56:07;;;;;;;16.07;5.80;;;12.40;99.90;;;;;;5075652;28;20282;-86
2021/11/06 11:58:39;;;;;;;9.83;5.17;;;12.40;99.90;;;;;;5072042;28;20226;-88
2021/11/06 12:01:06;;;;;;;9.53;5.73;;;12.30;99.90;;;;;;5071825;28;20668;-87
2021/11/06 12:03:32;;;;;;;19.03;10.07;;;12.40;99.90;;;;;;5055777;28;20527;-87
2021/11/06 12:05:59;;;;;;;10.97;5.60;;;12.50;99.90;;;;;;5060710;28;20193;-87
2021/11/06 12:08:28;;;;;;;19.87;10.80;;;12.70;99.90;;;;;;5072170;28;20193;-86
2021/11/06 12:11:00;;;;;;;16.77;7.93;;;12.70;99.90;;;;;;5073688;28;20221;-87
2021/11/06 12:13:30;;;;;;;21.53;12.23;;;12.80;99.90;;;;;;5073299;28;20599;-86
2021/11/06 12:15:58;;;;;;;17.93;8.50;;;12.90;99.90;;;;;;5055119;28;20178;-87
2021/11/06 12:18:33;;;;;;;13.10;6.87;;;12.80;99.90;;;;;;5071495;28;20194;-87
2021/11/06 12:23:38;;;;;;;17.03;6.90;;;12.90;99.90;;;;;;5089406;28;20547;-87
2021/11/06 12:26:23;;;;;;;17.73;8.00;;;13.00;99.90;;;;;;5056506;28;20200;-87
2021/11/06 12:29:15;;;;;;;11.77;5.77;;;12.70;99.90;;;;;;5073283;28;20207;-86
2021/11/06 12:31:46;;;;;;;11.53;6.43;;;12.60;99.90;;;;;;5054388;28;20515;-87
2021/11/06 12:34:43;;;;;;;10.77;5.70;;;12.60;99.90;;;;;;5074686;28;20179;-86
2021/11/06 12:37:12;;;;;;;11.43;5.67;;;12.50;99.90;;;;;;5056418;28;20182;-87
2021/11/06 12:39:54;;;;;;;10.40;5.13;;;12.40;99.90;;;;;;5066115;28;20707;-87
2021/11/06 12:42:26;;;;;;;11.03;5.33;;;12.50;99.90;;;;;;5032570;28;20193;-88
2021/11/06 12:44:55;;;;;;;9.80;5.63;;;12.60;99.90;;;;;;5049769;28;20254;-87